Airfield :
LOGIN :

Register | Disclaimer

   EN    FR    IT 

 










Legend :    VFR   Marginal VFR   IFR   Intensive IFR   Very Intensive IFR
Visi :
Ceiling :
>= 8 km
>= 3000ft
5 to 8 km
1000 to 3000 ft
1500m to 5 km
500 to 1000 ft
800 to 1500m
200 to 500 ft
< 800m
< 200 ft
Symbols :   Thunderstorms  Fog  Heavy snow  Heavy precipitations  Wind > 20 kt
SIGMETs :     Misc.  Thunderstorms  Icing  Turbulence  Mountain Waves  Volcanic Ashes






- Airport Elevation : 364 ft


LFAQ - Albert Bray

CURRENT METAR :
  • 122300Z AUTO 24012KT 9999 -RADZ SCT019/// BKN024/// BKN034/// ///TCU 05/04 Q1000

EXPIRED METARs :
  • 122230Z AUTO 23011KT 9999 -RA SCT019/// BKN031/// BKN052/// ///TCU 05/04 Q1000
  • 122200Z AUTO 22012KT 9999 -RA BKN017/// OVC028/// ///TCU 05/04 Q1000
  • 122130Z AUTO 21012KT 9999 SCT016/// SCT029/// BKN034/// ///TCU 04/04 Q1000
  • 122100Z AUTO 20012KT 9999 BKN016/// BKN022/// OVC034/// ///TCU 04/04 Q1000
  • 122030Z AUTO 19011KT 9999 -RADZ BKN026/// BKN034/// BKN045/// ///TCU 04/04 Q1000

TAF TAF LFAQ
Valid from the 12 at 15:00 until the 13 at 00:00 UTC


121400Z 1215/1224 23013KT 9999 BKN030
TEMPO 1219/1224 4000 SHRA BKN013 BKN030CB
PROB30
TEMPO 1219/1221 23015G25KT 2000 TSRA



MET'MAP, your aeronautical weather chart ! - Copyright ORBIFLY December 2007 - Disclaimer

ORBIFLY MET'MAP TEAM :

Programming & Development : Alexandra Zaïnal
Concept & Development : Baudouin d'Aumeries
Co-Development & Prog : Marc-Olivier Méhu
Technical & hardware support : Manuel Goepfert

Contact : metmap@orbifly.com




SOURCES & CREDITS :

   NOAA